Time;durP1;ratioP1;P1;durP2;ratioP2;P2;SDS_P1;SDS_P2;PMS_P1;PMS_P2;Temp;Humidity;BMP_temperature;BMP_pressure;BME280_temperature;BME280_humidity;BME280_pressure;Samples;Min_cycle;Max_cycle;Signal;HPM_P1;HPM_P2
2022/05/19 00:02:07;;;;;;;9.95;3.40;;;;;;;;;;5011309;28;20431;-43
2022/05/19 00:04:34;;;;;;;8.88;3.45;;;;;;;;;;5009648;28;20045;-46
2022/05/19 00:07:02;;;;;;;10.43;4.35;;;;;;;;;;5010923;28;20518;-44
2022/05/19 00:09:29;;;;;;;12.50;3.95;;;;;;;;;;5012572;28;20032;-48
2022/05/19 00:11:57;;;;;;;12.77;4.22;;;;;;;;;;5011842;28;20104;-46
2022/05/19 00:14:24;;;;;;;12.18;3.88;;;;;;;;;;5010925;28;20065;-44
2022/05/19 00:16:52;;;;;;;13.80;4.10;;;;;;;;;;5012038;28;20022;-47
2022/05/19 00:19:19;;;;;;;9.30;3.80;;;;;;;;;;5008244;28;20026;-45
2022/05/19 00:21:46;;;;;;;14.77;4.63;;;;;;;;;;5011997;28;20550;-44
2022/05/19 00:24:13;;;;;;;9.15;4.28;;;;;;;;;;5011958;28;20399;-48
2022/05/19 00:26:40;;;;;;;14.95;4.15;;;;;;;;;;5010912;28;20034;-43
2022/05/19 00:29:07;;;;;;;19.48;5.63;;;;;;;;;;5010915;28;20058;-45
2022/05/19 00:31:34;;;;;;;39.90;10.93;;;;;;;;;;4994206;28;20026;-43
2022/05/19 00:34:02;;;;;;;58.10;17.05;;;;;;;;;;5012402;28;20391;-45
2022/05/19 00:36:29;;;;;;;76.82;20.55;;;;;;;;;;5013410;28;20025;-44
2022/05/19 00:38:56;;;;;;;85.57;22.63;;;;;;;;;;5011691;28;20018;-45
2022/05/19 00:41:23;;;;;;;90.22;26.17;;;;;;;;;;5011897;28;20472;-49
2022/05/19 00:44:00;;;;;;;122.15;35.33;;;;;;;;;;5011993;28;20057;-46
2022/05/19 00:46:50;;;;;;;158.38;39.72;;;;;;;;;;5012532;28;20488;-48
2022/05/19 00:49:22;;;;;;;145.98;39.08;;;;;;;;;;5001239;28;20914;-43
2022/05/19 00:51:55;;;;;;;146.75;39.58;;;;;;;;;;5012111;28;20026;-45
2022/05/19 00:54:24;;;;;;;140.52;38.40;;;;;;;;;;5011689;28;20028;-47
2022/05/19 00:57:00;;;;;;;149.95;40.95;;;;;;;;;;5011451;28;20033;-49
2022/05/19 00:59:47;;;;;;;148.20;43.15;;;;;;;;;;5011819;28;20026;-44
2022/05/19 01:02:16;;;;;;;156.82;43.90;;;;;;;;;;5011969;28;20117;-46
2022/05/19 01:04:57;;;;;;;167.85;44.67;;;;;;;;;;4993671;28;20065;-44
2022/05/19 01:07:47;;;;;;;153.02;43.17;;;;;;;;;;5007730;28;20026;-46
2022/05/19 01:10:14;;;;;;;143.65;39.45;;;;;;;;;;4997577;28;20049;-43
2022/05/19 01:12:42;;;;;;;132.52;40.03;;;;;;;;;;5009724;28;20022;-45
2022/05/19 01:15:09;;;;;;;132.43;38.58;;;;;;;;;;5010736;28;20048;-43
2022/05/19 01:17:37;;;;;;;119.25;36.35;;;;;;;;;;5011013;28;20108;-46
2022/05/19 01:20:09;;;;;;;126.60;37.58;;;;;;;;;;5007249;28;20018;-46
2022/05/19 01:22:36;;;;;;;118.43;35.00;;;;;;;;;;4993667;28;20509;-45
2022/05/19 01:25:14;;;;;;;113.38;32.60;;;;;;;;;;5005243;28;20040;-46
2022/05/19 01:27:41;;;;;;;103.53;32.08;;;;;;;;;;5008048;28;20030;-46
2022/05/19 01:30:10;;;;;;;100.20;31.02;;;;;;;;;;5011372;28;20396;-45
2022/05/19 01:32:37;;;;;;;96.43;30.73;;;;;;;;;;5009864;28;20034;-45
2022/05/19 01:35:04;;;;;;;99.88;30.05;;;;;;;;;;5009273;28;20037;-46
2022/05/19 01:37:31;;;;;;;87.85;30.02;;;;;;;;;;5011466;28;20026;-44
2022/05/19 01:40:01;;;;;;;93.53;30.23;;;;;;;;;;5011196;28;20094;-46
2022/05/19 01:42:35;;;;;;;93.00;27.90;;;;;;;;;;5010412;28;20526;-43
2022/05/19 01:45:14;;;;;;;90.53;27.77;;;;;;;;;;5008834;28;20046;-48
2022/05/19 01:47:41;;;;;;;75.75;26.17;;;;;;;;;;5008309;28;20029;-46
2022/05/19 01:50:20;;;;;;;84.95;26.45;;;;;;;;;;5009185;28;20014;-46
2022/05/19 01:53:02;;;;;;;77.70;25.85;;;;;;;;;;5010346;28;20025;-46
2022/05/19 01:55:37;;;;;;;75.70;24.10;;;;;;;;;;4990721;28;20129;-46
2022/05/19 01:58:24;;;;;;;70.25;24.70;;;;;;;;;;5009163;28;20487;-43
2022/05/19 02:00:55;;;;;;;65.90;22.92;;;;;;;;;;4991313;28;20133;-50
2022/05/19 02:03:24;;;;;;;73.28;22.30;;;;;;;;;;5005139;28;20029;-42
2022/05/19 02:05:54;;;;;;;71.28;22.25;;;;;;;;;;5011061;28;20113;-42
2022/05/19 02:08:24;;;;;;;68.80;24.15;;;;;;;;;;5008151;28;20030;-47
2022/05/19 02:10:53;;;;;;;69.85;23.58;;;;;;;;;;5010873;28;20442;-44
2022/05/19 02:13:20;;;;;;;71.13;24.48;;;;;;;;;;5011026;28;20014;-43
2022/05/19 02:15:50;;;;;;;73.88;25.10;;;;;;;;;;5009958;28;20113;-48
2022/05/19 02:18:18;;;;;;;63.40;22.92;;;;;;;;;;5010983;28;20022;-47
2022/05/19 02:20:46;;;;;;;64.20;22.67;;;;;;;;;;5009528;28;20045;-44
2022/05/19 02:23:15;;;;;;;69.03;23.17;;;;;;;;;;5010407;28;20030;-43
2022/05/19 02:25:49;;;;;;;63.30;22.08;;;;;;;;;;5008542;28;20022;-43
2022/05/19 02:28:22;;;;;;;58.97;21.58;;;;;;;;;;5010924;28;20022;-48
2022/05/19 02:30:49;;;;;;;68.03;22.13;;;;;;;;;;5012254;28;20460;-43
2022/05/19 02:33:17;;;;;;;56.90;22.15;;;;;;;;;;5011163;28;20034;-43
2022/05/19 02:35:45;;;;;;;52.42;20.48;;;;;;;;;;5017004;28;20507;-43
2022/05/19 02:38:12;;;;;;;57.70;20.30;;;;;;;;;;5030159;28;20025;-46
2022/05/19 02:40:40;;;;;;;51.78;19.58;;;;;;;;;;5010966;28;20361;-45
2022/05/19 02:43:08;;;;;;;67.70;22.33;;;;;;;;;;5009762;28;20022;-44
2022/05/19 02:45:35;;;;;;;57.70;19.65;;;;;;;;;;5010966;28;20080;-42
2022/05/19 02:48:03;;;;;;;54.55;20.48;;;;;;;;;;5011230;28;20030;-42
2022/05/19 02:50:30;;;;;;;60.28;21.00;;;;;;;;;;5009832;28;20464;-46
2022/05/19 02:52:57;;;;;;;49.20;19.50;;;;;;;;;;5011790;28;20515;-45
2022/05/19 02:55:25;;;;;;;57.17;19.33;;;;;;;;;;5011640;28;20717;-42
2022/05/19 02:57:52;;;;;;;47.92;17.90;;;;;;;;;;5011635;28;20068;-43
2022/05/19 03:00:22;;;;;;;53.88;18.65;;;;;;;;;;5010543;28;20026;-44
2022/05/19 03:02:50;;;;;;;51.45;18.25;;;;;;;;;;5011525;28;20026;-44
2022/05/19 03:05:19;;;;;;;43.95;16.88;;;;;;;;;;5011330;28;20029;-46
2022/05/19 03:07:46;;;;;;;47.05;17.42;;;;;;;;;;5011626;28;20022;-45
2022/05/19 03:10:13;;;;;;;48.00;18.45;;;;;;;;;;5011100;28;20105;-46
2022/05/19 03:12:40;;;;;;;43.97;15.82;;;;;;;;;;5011082;28;20475;-44
2022/05/19 03:15:08;;;;;;;41.80;15.98;;;;;;;;;;5011723;28;20022;-42
2022/05/19 03:17:35;;;;;;;42.70;15.68;;;;;;;;;;5010110;28;20041;-44
2022/05/19 03:20:02;;;;;;;44.47;16.75;;;;;;;;;;5011110;28;20026;-45
2022/05/19 03:22:29;;;;;;;40.90;16.05;;;;;;;;;;5010650;28;20088;-45
2022/05/19 03:24:56;;;;;;;45.03;16.20;;;;;;;;;;5010749;28;20045;-43
2022/05/19 03:27:23;;;;;;;33.65;14.15;;;;;;;;;;5011712;28;20199;-45
2022/05/19 03:29:51;;;;;;;37.75;14.68;;;;;;;;;;5010845;28;20028;-45
2022/05/19 03:32:18;;;;;;;35.60;14.18;;;;;;;;;;5013661;28;20034;-45
2022/05/19 03:34:45;;;;;;;36.65;14.15;;;;;;;;;;5014698;28;20033;-47
2022/05/19 03:37:13;;;;;;;37.70;13.95;;;;;;;;;;5012783;28;20408;-46
2022/05/19 03:39:40;;;;;;;33.28;13.05;;;;;;;;;;5013648;28;20018;-44
2022/05/19 03:42:07;;;;;;;35.80;14.60;;;;;;;;;;5013341;28;20379;-44
2022/05/19 03:44:35;;;;;;;33.05;13.43;;;;;;;;;;5010890;28;20419;-48
2022/05/19 03:47:03;;;;;;;37.45;14.35;;;;;;;;;;5013218;28;20487;-46
2022/05/19 03:49:30;;;;;;;32.70;13.43;;;;;;;;;;4995605;28;20117;-49
2022/05/19 03:51:57;;;;;;;32.22;13.45;;;;;;;;;;5012948;28;20030;-46
2022/05/19 03:54:24;;;;;;;34.28;13.43;;;;;;;;;;4995132;28;20026;-42
2022/05/19 03:56:51;;;;;;;34.22;13.18;;;;;;;;;;5013646;28;20022;-47
2022/05/19 03:59:19;;;;;;;32.45;13.23;;;;;;;;;;5014577;28;20073;-46
2022/05/19 04:01:46;;;;;;;29.42;12.65;;;;;;;;;;5013967;28;20598;-44
2022/05/19 04:04:13;;;;;;;32.35;12.88;;;;;;;;;;5014154;28;20026;-47
2022/05/19 04:06:40;;;;;;;25.75;11.40;;;;;;;;;;5013952;28;20017;-45
2022/05/19 04:09:07;;;;;;;30.52;12.45;;;;;;;;;;5014515;28;20030;-46
2022/05/19 04:11:34;;;;;;;32.47;12.13;;;;;;;;;;5013695;28;20032;-44
2022/05/19 04:14:01;;;;;;;28.85;11.27;;;;;;;;;;5013329;28;20088;-44
2022/05/19 04:16:28;;;;;;;25.58;11.88;;;;;;;;;;4996466;28;20057;-44
2022/05/19 04:18:56;;;;;;;26.08;11.80;;;;;;;;;;5013593;28;20053;-43
2022/05/19 04:21:23;;;;;;;25.67;11.05;;;;;;;;;;5014369;28;20030;-43
2022/05/19 04:23:50;;;;;;;24.58;11.15;;;;;;;;;;4995064;28;20034;-45
2022/05/19 04:26:17;;;;;;;24.20;10.77;;;;;;;;;;5015254;28;20028;-44
2022/05/19 04:28:44;;;;;;;23.40;10.98;;;;;;;;;;5015509;28;20053;-43
2022/05/19 04:31:11;;;;;;;28.02;10.82;;;;;;;;;;5014360;28;20484;-45
2022/05/19 04:33:37;;;;;;;24.30;10.60;;;;;;;;;;5012700;28;20053;-45
2022/05/19 04:36:04;;;;;;;27.58;10.25;;;;;;;;;;4996215;28;20073;-43
2022/05/19 04:38:31;;;;;;;25.20;10.55;;;;;;;;;;5013797;28;20030;-43
2022/05/19 04:41:01;;;;;;;22.83;9.30;;;;;;;;;;5013446;28;20040;-45
2022/05/19 04:43:29;;;;;;;23.17;10.00;;;;;;;;;;5013011;28;20038;-48
2022/05/19 04:45:56;;;;;;;24.10;9.75;;;;;;;;;;5013146;28;20064;-43
2022/05/19 04:48:24;;;;;;;19.08;9.10;;;;;;;;;;5014184;28;20112;-43
2022/05/19 04:50:51;;;;;;;22.10;9.52;;;;;;;;;;5013647;28;20061;-43
2022/05/19 04:53:18;;;;;;;22.10;10.10;;;;;;;;;;5013488;28;20033;-44
2022/05/19 04:55:45;;;;;;;19.98;9.23;;;;;;;;;;5013572;28;20103;-43
2022/05/19 04:58:12;;;;;;;20.20;9.13;;;;;;;;;;5013510;28;20379;-45
2022/05/19 05:00:39;;;;;;;18.00;8.65;;;;;;;;;;5013260;28;20033;-44
2022/05/19 05:03:06;;;;;;;24.60;9.13;;;;;;;;;;5013573;28;20033;-44
2022/05/19 05:05:34;;;;;;;16.30;8.18;;;;;;;;;;5013368;28;20030;-43
2022/05/19 05:08:02;;;;;;;19.65;8.45;;;;;;;;;;5013332;28;20108;-46
2022/05/19 05:10:29;;;;;;;19.08;8.40;;;;;;;;;;5013204;28;20483;-45
2022/05/19 05:12:56;;;;;;;18.98;8.35;;;;;;;;;;5012970;28;20065;-46
2022/05/19 05:15:23;;;;;;;19.08;8.00;;;;;;;;;;5013448;28;20108;-44
2022/05/19 05:17:50;;;;;;;16.30;8.20;;;;;;;;;;5013199;28;20036;-45
2022/05/19 05:20:17;;;;;;;15.23;7.20;;;;;;;;;;5013209;28;20083;-45
2022/05/19 05:22:44;;;;;;;18.15;7.28;;;;;;;;;;5012575;28;20026;-44
2022/05/19 05:25:14;;;;;;;15.38;7.20;;;;;;;;;;5013066;28;20040;-45
2022/05/19 05:27:41;;;;;;;15.70;7.57;;;;;;;;;;5012482;28;20035;-43
2022/05/19 05:30:08;;;;;;;16.58;7.28;;;;;;;;;;5012972;28;20427;-46
2022/05/19 05:32:35;;;;;;;15.93;6.75;;;;;;;;;;5012712;28;20068;-47
2022/05/19 05:35:03;;;;;;;16.15;6.68;;;;;;;;;;4996406;28;20476;-44
2022/05/19 05:37:30;;;;;;;14.77;7.28;;;;;;;;;;5014203;28;20026;-46
2022/05/19 05:39:57;;;;;;;14.52;6.82;;;;;;;;;;5013538;28;20022;-45
2022/05/19 05:42:24;;;;;;;18.58;6.95;;;;;;;;;;4995182;28;20057;-44
2022/05/19 05:44:51;;;;;;;12.52;6.38;;;;;;;;;;5011973;28;20765;-46
2022/05/19 05:47:18;;;;;;;14.32;6.82;;;;;;;;;;4995130;28;20420;-45
2022/05/19 05:49:45;;;;;;;13.43;6.38;;;;;;;;;;5012877;28;20092;-44
2022/05/19 05:52:12;;;;;;;15.32;6.32;;;;;;;;;;5012363;28;20120;-44
2022/05/19 05:54:39;;;;;;;12.45;5.90;;;;;;;;;;5012576;28;20026;-45
2022/05/19 05:57:06;;;;;;;12.70;5.65;;;;;;;;;;5011902;28;20057;-44
2022/05/19 05:59:33;;;;;;;15.13;6.45;;;;;;;;;;5012960;28;20076;-44
2022/05/19 06:02:00;;;;;;;14.18;6.25;;;;;;;;;;5011935;28;20030;-45
2022/05/19 06:04:27;;;;;;;13.98;5.85;;;;;;;;;;5012688;28;20483;-44
2022/05/19 06:06:54;;;;;;;12.55;5.70;;;;;;;;;;5012686;28;20045;-44
2022/05/19 06:09:21;;;;;;;11.88;5.28;;;;;;;;;;5011772;28;20025;-45
2022/05/19 06:11:48;;;;;;;11.40;5.78;;;;;;;;;;5012581;28;20026;-43
2022/05/19 06:14:15;;;;;;;11.43;5.18;;;;;;;;;;5012161;28;20515;-44
2022/05/19 06:16:42;;;;;;;11.73;5.45;;;;;;;;;;4994861;28;20121;-43
2022/05/19 06:19:09;;;;;;;10.20;4.90;;;;;;;;;;5012482;28;20125;-44
2022/05/19 06:21:39;;;;;;;11.07;5.03;;;;;;;;;;5012416;28;20045;-49
2022/05/19 06:24:09;;;;;;;10.90;5.10;;;;;;;;;;5013408;28;20032;-44
2022/05/19 06:26:39;;;;;;;10.13;5.28;;;;;;;;;;5013594;28;20057;-43
2022/05/19 06:29:08;;;;;;;13.13;5.78;;;;;;;;;;5012659;28;20030;-44
2022/05/19 06:31:35;;;;;;;11.32;5.15;;;;;;;;;;5011738;28;20365;-45
2022/05/19 06:34:01;;;;;;;9.07;4.32;;;;;;;;;;5013717;28;20500;-43
2022/05/19 06:36:29;;;;;;;9.90;4.55;;;;;;;;;;5013451;28;20061;-45
2022/05/19 06:38:56;;;;;;;9.65;4.57;;;;;;;;;;5012344;28;20080;-44
2022/05/19 06:44:08;;;;;;;8.68;4.10;;;;;;;;;;5011216;28;20104;-44
2022/05/19 06:46:35;;;;;;;11.60;4.75;;;;;;;;;;5012594;28;20542;-45
2022/05/19 06:49:04;;;;;;;8.95;4.32;;;;;;;;;;5011940;28;20034;-48
2022/05/19 06:51:32;;;;;;;8.90;3.97;;;;;;;;;;5011778;28;20033;-45
2022/05/19 06:53:59;;;;;;;7.90;4.22;;;;;;;;;;5012448;28;20415;-46
2022/05/19 06:56:26;;;;;;;7.88;3.72;;;;;;;;;;5011717;28;20026;-45
2022/05/19 06:58:53;;;;;;;8.10;4.22;;;;;;;;;;5011952;28;20023;-46
2022/05/19 07:01:20;;;;;;;7.25;3.92;;;;;;;;;;5012160;28;20088;-45
2022/05/19 07:03:47;;;;;;;8.52;4.15;;;;;;;;;;5011897;28;20034;-44
2022/05/19 07:06:14;;;;;;;8.15;3.97;;;;;;;;;;5012242;28;20506;-43
2022/05/19 07:08:41;;;;;;;8.85;4.10;;;;;;;;;;5015529;28;20030;-44
2022/05/19 07:11:24;;;;;;;8.13;3.75;;;;;;;;;;5015471;28;20042;-47
2022/05/19 07:13:55;;;;;;;8.30;4.10;;;;;;;;;;5015633;28;20026;-45
2022/05/19 07:16:22;;;;;;;5.57;3.15;;;;;;;;;;5015541;28;20101;-44
2022/05/19 07:18:50;;;;;;;7.13;4.07;;;;;;;;;;5015505;28;20022;-45
2022/05/19 07:21:20;;;;;;;6.55;3.55;;;;;;;;;;5015112;28;20045;-43
2022/05/19 07:23:47;;;;;;;7.32;3.50;;;;;;;;;;5015170;28;20034;-46
2022/05/19 07:26:14;;;;;;;9.60;3.70;;;;;;;;;;5015359;28;20466;-43
2022/05/19 07:28:41;;;;;;;7.32;3.63;;;;;;;;;;5015462;28;20022;-43
2022/05/19 07:31:08;;;;;;;7.43;3.55;;;;;;;;;;5015339;28;20034;-44
2022/05/19 07:33:36;;;;;;;8.45;3.42;;;;;;;;;;5016450;28;20029;-44
2022/05/19 07:36:06;;;;;;;6.35;3.20;;;;;;;;;;5014781;28;20029;-45
2022/05/19 07:38:34;;;;;;;6.15;3.15;;;;;;;;;;5015358;28;20125;-43
2022/05/19 07:41:03;;;;;;;8.05;3.58;;;;;;;;;;5014670;28;20026;-44
2022/05/19 07:43:36;;;;;;;7.53;3.42;;;;;;;;;;4997161;28;20049;-45
2022/05/19 07:46:03;;;;;;;7.78;4.10;;;;;;;;;;5014330;28;20034;-45
2022/05/19 07:48:30;;;;;;;8.23;3.13;;;;;;;;;;5015182;28;20049;-47
2022/05/19 07:50:57;;;;;;;4.90;2.83;;;;;;;;;;5015166;28;20141;-45
2022/05/19 07:53:25;;;;;;;6.60;2.88;;;;;;;;;;4996587;28;20049;-44
2022/05/19 07:55:52;;;;;;;4.80;2.83;;;;;;;;;;5014719;28;20030;-45
2022/05/19 07:58:19;;;;;;;6.15;3.13;;;;;;;;;;5014937;28;20534;-44
2022/05/19 08:00:46;;;;;;;4.72;2.80;;;;;;;;;;5014042;28;20041;-46
2022/05/19 08:03:14;;;;;;;5.95;2.90;;;;;;;;;;4997048;28;20030;-44
2022/05/19 08:05:41;;;;;;;8.02;2.65;;;;;;;;;;5014945;28;20057;-43
2022/05/19 08:08:08;;;;;;;5.70;3.03;;;;;;;;;;5013939;28;20022;-46
2022/05/19 08:10:35;;;;;;;6.32;2.60;;;;;;;;;;5014910;28;20025;-44
2022/05/19 08:15:48;;;;;;;5.03;2.13;;;;;;;;;;5014772;28;20099;-43
2022/05/19 08:18:23;;;;;;;5.65;2.70;;;;;;;;;;5014649;28;20026;-45
2022/05/19 08:20:52;;;;;;;4.85;2.50;;;;;;;;;;5013627;28;20037;-45
2022/05/19 08:23:20;;;;;;;8.73;2.78;;;;;;;;;;5014478;28;20022;-43
2022/05/19 08:25:47;;;;;;;5.22;2.65;;;;;;;;;;5013574;28;20109;-47
2022/05/19 08:28:16;;;;;;;5.38;2.70;;;;;;;;;;5014452;28;20034;-44
2022/05/19 08:30:47;;;;;;;8.52;2.75;;;;;;;;;;5014270;28;20041;-46
2022/05/19 08:33:14;;;;;;;6.20;2.63;;;;;;;;;;5015049;28;20033;-44
2022/05/19 08:35:42;;;;;;;5.15;2.53;;;;;;;;;;5015180;28;20029;-45
2022/05/19 08:38:09;;;;;;;4.93;2.65;;;;;;;;;;5014460;28;20040;-45
2022/05/19 08:40:43;;;;;;;5.90;2.83;;;;;;;;;;5014092;28;20037;-47
2022/05/19 08:43:11;;;;;;;5.07;2.45;;;;;;;;;;5013048;28;20516;-47
2022/05/19 08:45:43;;;;;;;6.25;2.72;;;;;;;;;;5014156;28;20124;-47
2022/05/19 08:48:12;;;;;;;4.97;2.45;;;;;;;;;;5013131;28;20037;-44
2022/05/19 08:50:59;;;;;;;6.32;2.35;;;;;;;;;;5013747;28;20472;-45
2022/05/19 08:53:32;;;;;;;3.83;2.22;;;;;;;;;;5013166;28;20472;-45
2022/05/19 08:56:03;;;;;;;4.40;2.30;;;;;;;;;;5013669;28;20033;-43
2022/05/19 08:58:33;;;;;;;5.00;2.05;;;;;;;;;;5013547;28;20026;-46
2022/05/19 09:01:09;;;;;;;6.50;2.72;;;;;;;;;;5013391;28;20048;-46
2022/05/19 09:03:38;;;;;;;4.93;2.50;;;;;;;;;;5013187;28;20442;-46
2022/05/19 09:06:23;;;;;;;3.55;2.00;;;;;;;;;;5013187;28;20041;-45
2022/05/19 09:09:07;;;;;;;5.22;2.30;;;;;;;;;;5013825;28;20094;-43
2022/05/19 09:11:52;;;;;;;5.93;2.45;;;;;;;;;;5013194;28;20423;-47
2022/05/19 09:14:24;;;;;;;3.88;2.15;;;;;;;;;;5013539;28;20435;-44
2022/05/19 09:16:52;;;;;;;5.18;2.17;;;;;;;;;;5013702;28;20029;-43
2022/05/19 09:19:22;;;;;;;4.15;1.90;;;;;;;;;;5012720;28;20033;-44
2022/05/19 09:21:51;;;;;;;5.63;2.30;;;;;;;;;;5013429;28;20038;-43
2022/05/19 09:24:19;;;;;;;3.88;2.30;;;;;;;;;;5013091;28;20022;-47
2022/05/19 09:26:52;;;;;;;4.72;2.00;;;;;;;;;;5013142;28;20111;-43
2022/05/19 09:29:29;;;;;;;2.88;1.80;;;;;;;;;;5012799;28;20528;-44
2022/05/19 09:32:02;;;;;;;3.15;2.03;;;;;;;;;;5012316;28;20084;-44
2022/05/19 09:34:30;;;;;;;6.35;2.00;;;;;;;;;;5013419;28;20026;-44
2022/05/19 09:37:17;;;;;;;3.25;2.28;;;;;;;;;;5012447;28;20038;-44
2022/05/19 09:39:49;;;;;;;5.18;2.20;;;;;;;;;;5013098;28;20105;-43
2022/05/19 09:42:19;;;;;;;3.67;1.75;;;;;;;;;;5012868;28;20041;-46
2022/05/19 09:44:56;;;;;;;4.15;2.03;;;;;;;;;;5012100;28;20153;-44
2022/05/19 09:47:30;;;;;;;4.32;2.00;;;;;;;;;;4995481;28;20510;-45
2022/05/19 09:50:08;;;;;;;3.70;1.85;;;;;;;;;;5012231;28;20081;-46
2022/05/19 09:52:36;;;;;;;4.72;2.05;;;;;;;;;;4995316;28;20502;-45
2022/05/19 09:55:06;;;;;;;4.20;2.00;;;;;;;;;;5012947;28;20030;-43
2022/05/19 09:57:35;;;;;;;3.88;1.83;;;;;;;;;;5012315;28;20112;-45
2022/05/19 10:00:04;;;;;;;3.30;2.03;;;;;;;;;;5012632;28;20026;-46
2022/05/19 10:02:38;;;;;;;3.58;1.90;;;;;;;;;;5012613;28;20108;-45
2022/05/19 10:05:19;;;;;;;3.47;1.90;;;;;;;;;;5012470;28;20136;-45
2022/05/19 10:07:51;;;;;;;3.97;1.90;;;;;;;;;;5012595;28;20046;-44
2022/05/19 10:10:20;;;;;;;3.50;1.60;;;;;;;;;;5012675;28;20034;-43
2022/05/19 10:12:48;;;;;;;4.25;1.88;;;;;;;;;;5011838;28;20117;-43
2022/05/19 10:15:17;;;;;;;4.70;2.00;;;;;;;;;;5012792;28;20026;-44
2022/05/19 10:17:51;;;;;;;3.65;1.67;;;;;;;;;;5012145;28;20026;-48
2022/05/19 10:20:23;;;;;;;3.50;1.65;;;;;;;;;;4994558;28;20065;-45
2022/05/19 10:23:14;;;;;;;3.97;1.92;;;;;;;;;;5012615;28;20021;-49
2022/05/19 10:25:47;;;;;;;4.65;2.08;;;;;;;;;;5012022;28;20030;-45
2022/05/19 10:31:05;;;;;;;2.63;1.60;;;;;;;;;;5011973;28;20045;-45
2022/05/19 10:33:50;;;;;;;3.55;1.77;;;;;;;;;;5012514;28;20495;-44
2022/05/19 10:36:17;;;;;;;2.95;1.77;;;;;;;;;;5012326;28;20173;-46
2022/05/19 10:39:04;;;;;;;3.13;1.75;;;;;;;;;;5011698;28;20050;-43
2022/05/19 10:41:36;;;;;;;3.85;1.80;;;;;;;;;;5014357;28;20084;-43
2022/05/19 10:44:06;;;;;;;2.63;1.20;;;;;;;;;;5017224;28;20057;-44
2022/05/19 10:47:00;;;;;;;2.45;1.60;;;;;;;;;;5016789;28;20029;-43
2022/05/19 10:49:39;;;;;;;2.90;1.70;;;;;;;;;;4994485;28;20034;-44
2022/05/19 10:52:17;;;;;;;2.60;1.55;;;;;;;;;;4996940;28;20518;-45
2022/05/19 10:54:49;;;;;;;2.65;1.20;;;;;;;;;;5015270;28;20025;-43
2022/05/19 10:57:19;;;;;;;2.90;1.40;;;;;;;;;;5016088;28;20045;-44
2022/05/19 11:00:02;;;;;;;3.58;1.75;;;;;;;;;;4998464;28;20088;-44
2022/05/19 11:02:43;;;;;;;4.35;1.65;;;;;;;;;;5015259;28;20034;-44
2022/05/19 11:05:10;;;;;;;4.20;1.65;;;;;;;;;;4998425;28;20431;-47
2022/05/19 11:07:47;;;;;;;3.08;1.40;;;;;;;;;;4997349;28;20092;-44
2022/05/19 11:10:32;;;;;;;3.67;1.48;;;;;;;;;;5015975;28;20026;-44
2022/05/19 11:12:59;;;;;;;3.85;1.90;;;;;;;;;;5015751;28;20387;-47
2022/05/19 11:15:36;;;;;;;5.20;1.60;;;;;;;;;;5015008;28;20028;-46
2022/05/19 11:18:08;;;;;;;3.90;1.63;;;;;;;;;;4998232;28;20033;-43
2022/05/19 11:20:55;;;;;;;4.88;1.70;;;;;;;;;;5015172;28;20040;-44
2022/05/19 11:23:34;;;;;;;2.53;1.50;;;;;;;;;;5015592;28;20038;-44
2022/05/19 11:26:28;;;;;;;3.17;1.50;;;;;;;;;;5015336;28;20022;-43
2022/05/19 11:28:55;;;;;;;4.70;1.65;;;;;;;;;;5014525;28;20036;-44
2022/05/19 11:31:35;;;;;;;2.13;1.60;;;;;;;;;;5015452;28;20038;-43
2022/05/19 11:34:04;;;;;;;2.95;1.90;;;;;;;;;;5014521;28;20384;-46
2022/05/19 11:36:43;;;;;;;3.75;1.77;;;;;;;;;;5015466;28;20026;-45
2022/05/19 11:39:19;;;;;;;4.13;1.65;;;;;;;;;;5014890;28;20030;-45
2022/05/19 11:41:47;;;;;;;3.35;1.50;;;;;;;;;;5014777;28;20030;-45
2022/05/19 11:44:24;;;;;;;3.22;1.65;;;;;;;;;;5015101;28;20057;-46
2022/05/19 11:47:09;;;;;;;4.53;1.67;;;;;;;;;;5014285;28;20026;-43
2022/05/19 11:58:21;;;;;;;4.57;1.60;;;;;;;;;;5001940;28;20068;-48
2022/05/19 12:01:00;;;;;;;3.63;1.83;;;;;;;;;;5014195;28;20069;-44
2022/05/19 12:03:36;;;;;;;4.47;1.65;;;;;;;;;;5014208;28;20041;-48
2022/05/19 12:06:04;;;;;;;3.13;1.55;;;;;;;;;;5013403;28;20098;-46
2022/05/19 12:08:31;;;;;;;2.80;1.67;;;;;;;;;;5016159;28;20112;-48
2022/05/19 12:11:09;;;;;;;4.20;1.58;;;;;;;;;;5016559;28;20034;-49
2022/05/19 12:13:40;;;;;;;5.13;1.90;;;;;;;;;;5038235;28;21121;-46
2022/05/19 12:16:11;;;;;;;4.10;1.80;;;;;;;;;;5040730;28;20076;-48
2022/05/19 12:18:43;;;;;;;4.30;1.58;;;;;;;;;;5041245;28;20026;-44
2022/05/19 12:21:10;;;;;;;4.15;1.90;;;;;;;;;;5042622;28;20030;-44
2022/05/19 12:23:40;;;;;;;2.42;1.58;;;;;;;;;;5039599;28;20038;-45
2022/05/19 12:26:12;;;;;;;4.32;1.90;;;;;;;;;;5033427;28;20025;-44
2022/05/19 12:28:51;;;;;;;3.70;1.85;;;;;;;;;;5027636;28;20033;-45
2022/05/19 12:34:05;;;;;;;8.60;1.67;;;;;;;;;;5041262;28;20092;-47
2022/05/19 12:36:32;;;;;;;6.63;2.00;;;;;;;;;;5038558;28;20040;-47
2022/05/19 12:39:11;;;;;;;5.47;1.90;;;;;;;;;;5042983;28;20079;-45
2022/05/19 12:41:53;;;;;;;5.00;2.00;;;;;;;;;;5046586;28;20033;-45
2022/05/19 12:44:26;;;;;;;9.10;2.05;;;;;;;;;;5034789;28;20036;-46
2022/05/19 12:47:04;;;;;;;4.70;1.73;;;;;;;;;;5037021;28;20048;-44
2022/05/19 12:49:34;;;;;;;6.20;1.98;;;;;;;;;;5032998;28;20518;-45
2022/05/19 12:52:01;;;;;;;6.05;1.90;;;;;;;;;;5035192;28;20479;-49
2022/05/19 12:54:31;;;;;;;9.82;2.08;;;;;;;;;;5032292;28;20076;-46
2022/05/19 12:57:18;;;;;;;12.40;2.13;;;;;;;;;;5029733;28;20021;-52
2022/05/19 12:59:48;;;;;;;9.88;1.80;;;;;;;;;;5022787;28;20057;-52
2022/05/19 13:02:21;;;;;;;8.32;1.77;;;;;;;;;;5030349;28;20534;-47
2022/05/19 13:04:51;;;;;;;11.55;2.05;;;;;;;;;;5041346;28;20094;-56
2022/05/19 13:07:39;;;;;;;10.52;2.30;;;;;;;;;;5038468;28;20446;-52
2022/05/19 13:10:23;;;;;;;5.57;1.58;;;;;;;;;;5013497;28;20617;-55
2022/05/19 13:13:16;;;;;;;7.75;1.70;;;;;;;;;;5028577;28;20033;-48
2022/05/19 13:15:50;;;;;;;12.55;1.98;;;;;;;;;;5007121;28;20553;-47
2022/05/19 13:18:18;;;;;;;8.00;1.85;;;;;;;;;;5035550;28;20060;-51
2022/05/19 13:20:45;;;;;;;4.68;1.80;;;;;;;;;;5031006;28;20475;-49
2022/05/19 13:23:25;;;;;;;4.13;1.13;;;;;;;;;;5029988;28;20061;-51
2022/05/19 13:25:53;;;;;;;7.35;1.83;;;;;;;;;;5028767;28;20033;-50
2022/05/19 13:31:23;;;;;;;7.57;1.58;;;;;;;;;;5031447;28;20039;-50
2022/05/19 13:33:52;;;;;;;7.93;1.40;;;;;;;;;;5031596;28;20116;-47
2022/05/19 13:36:29;;;;;;;2.70;1.10;;;;;;;;;;5028109;28;20037;-51
2022/05/19 13:39:14;;;;;;;7.72;1.63;;;;;;;;;;5034229;28;20036;-52
2022/05/19 13:41:56;;;;;;;7.13;1.60;;;;;;;;;;5041315;28;20037;-50
2022/05/19 13:44:32;;;;;;;6.78;1.40;;;;;;;;;;5043781;28;20398;-48
2022/05/19 13:46:59;;;;;;;5.32;1.40;;;;;;;;;;5044243;28;20023;-56
2022/05/19 13:49:28;;;;;;;5.85;1.48;;;;;;;;;;5043756;28;20030;-52
2022/05/19 13:51:56;;;;;;;2.53;1.15;;;;;;;;;;5046467;28;20106;-52
2022/05/19 13:54:26;;;;;;;5.55;1.42;;;;;;;;;;5050650;28;20041;-47
2022/05/19 13:56:58;;;;;;;4.55;1.60;;;;;;;;;;5032511;28;20033;-56
2022/05/19 13:59:29;;;;;;;;;;;;;;;;;;5032831;28;20498;-51
2022/05/19 14:02:06;;;;;;;13.43;1.70;;;;;;;;;;5029966;28;19921;-47
2022/05/19 14:04:37;;;;;;;14.10;1.83;;;;;;;;;;5038578;28;20037;-54
2022/05/19 14:07:05;;;;;;;8.73;1.77;;;;;;;;;;5030962;28;20029;-51
2022/05/19 14:09:55;;;;;;;6.60;1.70;;;;;;;;;;5032650;28;20124;-48
2022/05/19 14:12:27;;;;;;;3.78;1.20;;;;;;;;;;5050504;28;20029;-50
2022/05/19 14:15:24;;;;;;;5.85;1.65;;;;;;;;;;5046713;28;20032;-55
2022/05/19 14:17:56;;;;;;;4.10;1.45;;;;;;;;;;5008994;28;20048;-53
2022/05/19 14:20:29;;;;;;;5.80;2.03;;;;;;;;;;5043337;28;20055;-48
2022/05/19 14:22:56;;;;;;;8.90;1.70;;;;;;;;;;5050448;28;20037;-50
2022/05/19 14:25:24;;;;;;;5.63;1.60;;;;;;;;;;5050498;28;20033;-54
2022/05/19 14:27:54;;;;;;;5.10;1.25;;;;;;;;;;5049480;28;20394;-51
2022/05/19 14:30:21;;;;;;;6.20;1.70;;;;;;;;;;5035530;28;20026;-52
2022/05/19 14:33:04;;;;;;;13.55;2.20;;;;;;;;;;5029072;28;20018;-53
2022/05/19 14:35:45;;;;;;;10.80;2.33;;;;;;;;;;5032523;28;20029;-49
2022/05/19 14:38:18;;;;;;;13.20;2.50;;;;;;;;;;5029575;28;20044;-53
2022/05/19 14:43:36;;;;;;;14.55;2.30;;;;;;;;;;5040761;28;20044;-51
2022/05/19 14:46:03;;;;;;;12.70;2.03;;;;;;;;;;5038107;28;20025;-53
2022/05/19 14:48:41;;;;;;;9.45;1.60;;;;;;;;;;5030673;28;20446;-50
2022/05/19 14:51:35;;;;;;;9.35;2.08;;;;;;;;;;5031648;28;20557;-53
2022/05/19 14:54:02;;;;;;;6.68;1.90;;;;;;;;;;5035808;28;20037;-48
2022/05/19 14:56:35;;;;;;;9.15;1.65;;;;;;;;;;5030401;28;20025;-48
2022/05/19 14:59:09;;;;;;;9.18;1.80;;;;;;;;;;5026731;28;20538;-48
2022/05/19 15:01:36;;;;;;;6.07;2.20;;;;;;;;;;5009795;28;20587;-48
2022/05/19 15:04:03;;;;;;;6.30;1.58;;;;;;;;;;5029651;28;20454;-47
2022/05/19 15:06:31;;;;;;;8.52;1.60;;;;;;;;;;5030561;28;20391;-49
2022/05/19 15:08:58;;;;;;;9.93;1.90;;;;;;;;;;5030056;28;20067;-50
2022/05/19 15:11:26;;;;;;;12.45;2.03;;;;;;;;;;5029652;28;20394;-48
2022/05/19 15:13:52;;;;;;;11.02;2.10;;;;;;;;;;5037396;28;20144;-48
2022/05/19 15:16:21;;;;;;;9.82;1.80;;;;;;;;;;5043546;28;20367;-50
2022/05/19 15:18:48;;;;;;;8.38;1.33;;;;;;;;;;5036994;28;20052;-55
2022/05/19 15:21:15;;;;;;;10.05;1.38;;;;;;;;;;5028661;28;20747;-51